Brownsville, California
Current Conditions -  °F | °C
As of 9:53 AM on Friday 31 Oct 2014 (Local Time) from KOVE Reporting Station
Overcast Overcast  
Wind Chill: 63°   Ceiling: 5000
Heat Index: 63°   Visibility: 10mi
Dew Point: 53°   Wind: 7mph
Humidity: 70%   Direction: 120°ESE
Pressure: 29.87"   Gusts: NA
Location:  39.47°N, 121.27°W
Report Text: KOVE 311653Z AUTO 12006KT 10SM OVC050 17/12 A2987 RMK AO2 SLP115 T01720117
Loading
Personal Weather Stations






























Interactive Weather Map
Tropical Storm Tracking
New forecast layout! Learn more

10-Day Weather Forecast

Advertisements
Track Severe Weather on mobile